Pagina principale
METAR-TAF:

METAR-TAF

Aeroporti :

Amman, Giordania

latitudine: 31-59N, longitudine: 035-59E, altezza: 767 m

Osservazione

Il bollettino è stato emesso 1 ora e 49 minuti fa, alle 22:00 UTC
Vento 8 kt da ovest
Temperature 13°C
Umidità 77%
Pressione 1018 hPa
Visibilità 10 km o più
Poco nuvoloso ad un'altezza di 2000 ft

METAR: OJAM 292200Z 28008KT 9999 FEW020 13/09 Q1018 NOSIG

Ora: 02:49 (23:49 UTC)

Previsione

Il bollettino è stato emesso 2 ore e 20 minuti fa, alle 21:29 UTC
Previsione valida dal 30 alle 00 UTC al 31 alle 06 UTC
Vento 8 kt da ovest/nord-ovest
Visibilità: 7000 m
Poco nuvoloso ad un'altezza di 2500 ft
Probabilità 30% :
Temporaneamente
dal 30 alle 02 UTC al 30 alle 05 UTC
Visibilità: 3000 m
foschia

TAF: OJAM 292129Z 3000/3106 29008KT 7000 FEW025 PROB30 TEMPO 3002/3005 3000 BR

Osservazioni e previsioni meteorologiche di più di 4000 aeroporti (messaggi METAR e TAF).

Le stazioni disponibili sono rappresentate dai dischi gialli e rossi sulla carta.

Puntare il mouse per vedere il nome della stazione.

Clicca sopra per visualizzare le osservazioni e previsioni meteorologiche.

Per cambiare la mappa : fare clic sui pulsanti verdi con una croce nera per ingrandire, il pulsante verde con un trattino per diminuire, o sulla freccia verde per le mappe adiacenti.


METAR-TAF: